Time;durP1;ratioP1;P1;durP2;ratioP2;P2;SDS_P1;SDS_P2;PMS_P1;PMS_P2;Temp;Humidity;BMP_temperature;BMP_pressure;BME280_temperature;BME280_humidity;BME280_pressure;Samples;Min_cycle;Max_cycle;Signal;HPM_P1;HPM_P2
2021/11/28 00:00:55;;;;;;;46.05;27.87;;;;;;;3.25;100.00;97003.66;2182759;81;21050;-79
2021/11/28 00:03:55;;;;;;;43.30;27.10;;;;;;;3.23;100.00;97004.32;2180996;82;21037;-82
2021/11/28 00:07:01;;;;;;;53.35;28.90;;;;;;;3.19;100.00;97003.05;2179765;82;21132;-78
2021/11/28 00:13:06;;;;;;;52.10;29.50;;;;;;;3.26;100.00;97005.26;2189218;81;20973;-82
2021/11/28 00:16:06;;;;;;;51.48;30.08;;;;;;;3.35;100.00;97002.11;2187334;81;21495;-82
2021/11/28 00:19:07;;;;;;;50.58;29.50;;;;;;;3.31;100.00;96995.70;2187975;81;21020;-82
2021/11/28 00:22:09;;;;;;;55.73;32.33;;;;;;;3.31;100.00;97006.05;2181473;81;21104;-82
2021/11/28 00:25:12;;;;;;;53.58;30.25;;;;;;;3.38;100.00;97003.88;2180787;81;21043;-82
2021/11/28 00:28:16;;;;;;;55.05;30.88;;;;;;;3.45;100.00;97004.45;2180865;81;21080;-82
2021/11/28 00:31:17;;;;;;;51.45;29.63;;;;;;;3.47;100.00;97001.99;2181200;81;21059;-82
2021/11/28 00:34:18;;;;;;;42.48;26.55;;;;;;;3.43;100.00;97000.26;2187945;81;21026;-83
2021/11/28 00:37:18;;;;;;;45.78;27.37;;;;;;;3.42;100.00;96990.09;2185046;81;21495;-82
2021/11/28 00:40:19;;;;;;;51.23;30.20;;;;;;;3.39;100.00;96993.04;2182899;81;20926;-82
2021/11/28 00:43:20;;;;;;;63.15;32.75;;;;;;;3.40;100.00;96992.86;2182367;81;21589;-80
2021/11/28 00:46:21;;;;;;;75.47;35.95;;;;;;;3.47;100.00;96986.95;2186753;81;20989;-77
2021/11/28 00:49:23;;;;;;;57.35;31.23;;;;;;;3.52;100.00;96976.89;2189599;81;21546;-80
2021/11/28 00:52:24;;;;;;;47.60;29.07;;;;;;;3.51;100.00;96984.34;2188643;81;21009;-83
2021/11/28 00:55:25;;;;;;;45.95;27.37;;;;;;;3.44;100.00;96988.13;2185847;81;21020;-80
2021/11/28 00:58:26;;;;;;;49.45;29.18;;;;;;;3.40;100.00;96990.27;2181562;81;20945;-81
2021/11/28 01:01:28;;;;;;;44.15;28.17;;;;;;;3.44;100.00;96989.41;2187180;81;21545;-79
2021/11/28 01:04:29;;;;;;;48.35;29.80;;;;;;;3.32;100.00;96977.89;2150600;83;21055;-82
2021/11/28 01:07:30;;;;;;;58.02;33.40;;;;;;;3.31;100.00;96973.70;2169989;81;20967;-82
2021/11/28 01:10:31;;;;;;;60.03;33.58;;;;;;;3.26;100.00;96974.22;2165802;81;21631;-80
2021/11/28 01:13:32;;;;;;;55.15;33.00;;;;;;;3.21;100.00;96968.78;2163936;82;20967;-80
2021/11/28 01:16:34;;;;;;;59.98;34.67;;;;;;;3.16;100.00;96972.86;2167842;82;21544;-79
2021/11/28 01:19:35;;;;;;;53.87;31.45;;;;;;;3.08;100.00;96985.37;2165345;82;21009;-80
2021/11/28 01:22:36;;;;;;;58.60;33.35;;;;;;;3.11;100.00;96979.87;2163312;82;21041;-81
2021/11/28 01:25:36;;;;;;;56.98;33.98;;;;;;;3.08;100.00;96989.24;2163374;82;21488;-80
2021/11/28 01:28:37;;;;;;;59.30;34.00;;;;;;;3.03;100.00;96985.91;2163689;82;21029;-82
2021/11/28 01:31:38;;;;;;;68.67;37.03;;;;;;;3.00;100.00;96987.52;2166684;82;21017;-84
2021/11/28 01:34:39;;;;;;;70.80;41.58;;;;;;;3.05;100.00;96995.58;2163762;82;21068;-81
2021/11/28 01:37:40;;;;;;;69.05;37.95;;;;;;;3.06;100.00;96990.72;2167509;82;20974;-81
2021/11/28 01:40:41;;;;;;;70.08;39.53;;;;;;;3.08;100.00;96993.92;2168291;82;21007;-80
2021/11/28 01:43:42;;;;;;;68.50;37.65;;;;;;;3.14;100.00;96994.53;2164636;82;20922;-78
2021/11/28 01:46:42;;;;;;;64.55;36.33;;;;;;;3.19;100.00;96999.66;2165505;82;21012;-78
2021/11/28 01:49:43;;;;;;;58.95;31.30;;;;;;;3.24;100.00;96995.58;2165819;82;21560;-81
2021/11/28 01:52:44;;;;;;;52.58;31.02;;;;;;;3.23;100.00;96985.41;2171169;81;20978;-81
2021/11/28 01:55:45;;;;;;;47.58;28.70;;;;;;;3.13;100.00;96991.63;2171397;82;21532;-80
2021/11/28 01:58:46;;;;;;;52.73;30.17;;;;;;;3.06;100.00;96986.84;2167792;82;20950;-81
2021/11/28 02:01:47;;;;;;;49.93;27.65;;;;;;;3.01;100.00;96985.25;2169118;82;21095;-81
2021/11/28 02:04:47;;;;;;;55.70;29.80;;;;;;;3.08;100.00;96982.29;2171181;81;20965;-80
2021/11/28 02:07:48;;;;;;;51.73;29.30;;;;;;;3.16;100.00;96994.35;2184420;81;21056;-79
2021/11/28 02:10:49;;;;;;;52.53;27.75;;;;;;;3.23;100.00;96993.98;2190011;81;21081;-79
2021/11/28 02:13:50;;;;;;;45.55;27.65;;;;;;;3.29;100.00;96993.29;2188417;81;20969;-80
2021/11/28 02:16:50;;;;;;;49.27;26.85;;;;;;;3.27;100.00;96994.42;2183153;81;21104;-81
2021/11/28 02:19:51;;;;;;;44.65;26.95;;;;;;;3.28;100.00;96985.19;2181157;81;20998;-81
2021/11/28 02:22:52;;;;;;;49.98;28.50;;;;;;;3.26;100.00;96982.47;2180765;82;21004;-82
2021/11/28 02:25:53;;;;;;;48.90;27.50;;;;;;;3.22;100.00;96991.08;2180639;81;20985;-81
2021/11/28 02:28:54;;;;;;;49.90;29.82;;;;;;;3.10;100.00;97006.67;2180779;81;21017;-81
2021/11/28 02:31:54;;;;;;;51.65;30.15;;;;;;;3.01;100.00;96996.88;2183632;81;20988;-80
2021/11/28 02:34:55;;;;;;;50.03;29.23;;;;;;;3.02;100.00;96989.95;2183993;81;21410;-80
2021/11/28 02:37:56;;;;;;;48.45;30.20;;;;;;;3.03;100.00;96984.61;2187792;81;22140;-81
2021/11/28 02:40:57;;;;;;;49.77;29.05;;;;;;;2.99;100.00;96975.58;2187454;81;21056;-80
2021/11/28 02:43:58;;;;;;;54.80;31.60;;;;;;;2.96;100.00;96975.13;2186573;81;21060;-81
2021/11/28 02:46:59;;;;;;;50.95;30.72;;;;;;;2.88;100.00;96982.94;2181024;81;21008;-81
2021/11/28 02:50:00;;;;;;;51.63;29.12;;;;;;;2.81;100.00;96984.91;2185580;81;20973;-81
2021/11/28 02:53:00;;;;;;;47.75;28.35;;;;;;;2.68;100.00;96991.16;2180924;82;21052;-80
2021/11/28 02:59:11;;;;;;;50.38;28.32;;;;;;;2.42;100.00;96987.59;2097129;81;21186;-80
2021/11/28 03:02:12;;;;;;;40.50;24.63;;;;;;;2.30;100.00;96982.50;2096739;84;21045;-81
2021/11/28 03:05:13;;;;;;;43.85;26.12;;;;;;;2.17;100.00;96976.58;2096720;85;21063;-81
2021/11/28 03:08:14;;;;;;;44.00;26.97;;;;;;;2.03;100.00;96978.59;2096801;85;21012;-80
2021/11/28 03:11:15;;;;;;;49.90;27.77;;;;;;;1.96;100.00;96973.77;2096733;85;21056;-81
2021/11/28 03:14:15;;;;;;;45.60;26.95;;;;;;;1.87;100.00;96982.52;2096707;85;21513;-81
2021/11/28 03:17:16;;;;;;;46.00;27.25;;;;;;;1.84;100.00;96982.86;2096728;84;20980;-82
2021/11/28 03:20:17;;;;;;;51.77;28.10;;;;;;;1.77;100.00;96988.36;2097187;85;21076;-80
2021/11/28 03:23:18;;;;;;;48.23;27.55;;;;;;;1.69;100.00;96978.38;2096710;85;20980;-81
2021/11/28 03:26:19;;;;;;;50.15;28.45;;;;;;;1.71;100.00;96982.08;2096752;85;20980;-82
2021/11/28 03:29:20;;;;;;;49.38;29.10;;;;;;;1.64;100.00;96971.60;2096632;84;21055;-82
2021/11/28 03:32:20;;;;;;;49.77;29.40;;;;;;;1.64;100.00;96971.60;2096988;85;21523;-79
2021/11/28 03:35:21;;;;;;;53.80;31.90;;;;;;;1.64;100.00;96982.41;2098703;85;20952;-77
2021/11/28 03:38:22;;;;;;;51.90;29.65;;;;;;;1.66;100.00;96981.78;2098571;85;20985;-81
2021/11/28 03:41:23;;;;;;;55.88;30.65;;;;;;;1.65;100.00;96984.84;2096795;84;21547;-80
2021/11/28 03:44:26;;;;;;;57.03;31.25;;;;;;;1.63;100.00;96977.73;2096602;85;21072;-81
2021/11/28 03:47:26;;;;;;;53.50;31.65;;;;;;;1.63;100.00;96971.77;2096737;85;21012;-80
2021/11/28 03:50:27;;;;;;;54.58;29.87;;;;;;;1.63;100.00;96975.16;2096851;85;20999;-80
2021/11/28 03:53:28;;;;;;;53.20;31.15;;;;;;;1.65;100.00;96970.66;2096241;85;21012;-83
2021/11/28 03:56:30;;;;;;;61.18;33.88;;;;;;;1.64;100.00;96975.47;2096690;85;21060;-81
2021/11/28 03:59:31;;;;;;;54.67;30.97;;;;;;;1.59;100.00;96979.05;2095807;85;21052;-81
2021/11/28 04:02:32;;;;;;;55.92;31.35;;;;;;;1.57;100.00;96983.58;2095937;84;20996;-80
2021/11/28 04:05:33;;;;;;;57.58;33.58;;;;;;;1.51;100.00;96977.77;2095251;85;21000;-82
2021/11/28 04:08:34;;;;;;;61.65;34.67;;;;;;;1.55;100.00;96984.69;2094237;85;21015;-82
2021/11/28 04:11:34;;;;;;;63.13;34.23;;;;;;;1.57;100.00;96990.52;2094210;84;20989;-82
2021/11/28 04:14:35;;;;;;;58.17;33.95;;;;;;;1.62;100.00;96995.97;2094349;85;21043;-81
2021/11/28 04:17:36;;;;;;;63.38;36.90;;;;;;;1.67;100.00;96998.87;2094277;85;21028;-85
2021/11/28 04:20:37;;;;;;;72.22;40.80;;;;;;;1.71;100.00;97001.42;2094233;84;21463;-83
2021/11/28 04:23:38;;;;;;;71.20;38.88;;;;;;;1.80;100.00;97000.92;2094256;84;21071;-81
2021/11/28 04:26:39;;;;;;;68.33;37.63;;;;;;;1.80;100.00;97000.92;2094147;84;21472;-81
2021/11/28 04:29:40;;;;;;;68.15;38.08;;;;;;;1.81;100.00;97003.81;2094208;85;21046;-81
2021/11/28 04:32:40;;;;;;;62.75;36.42;;;;;;;1.81;100.00;97006.40;2094129;85;20996;-81
2021/11/28 04:35:41;;;;;;;60.75;35.55;;;;;;;1.82;100.00;97001.55;2094322;85;21030;-81
2021/11/28 04:38:42;;;;;;;56.77;34.53;;;;;;;1.81;100.00;97001.23;2094310;85;21026;-81
2021/11/28 04:41:43;;;;;;;54.33;34.73;;;;;;;1.76;100.00;96999.66;2094303;85;21091;-81
2021/11/28 04:44:44;;;;;;;61.18;37.38;;;;;;;1.70;100.00;96995.95;2094083;85;21043;-80
2021/11/28 04:47:44;;;;;;;58.08;32.85;;;;;;;1.66;100.00;96993.39;2094078;85;21021;-81
2021/11/28 04:50:45;;;;;;;62.40;36.25;;;;;;;1.69;100.00;96989.98;2094049;85;21067;-81
2021/11/28 04:53:46;;;;;;;53.50;31.75;;;;;;;1.65;100.00;96988.72;2094104;84;21041;-81
2021/11/28 04:56:47;;;;;;;52.20;32.60;;;;;;;1.59;100.00;96979.05;2094046;85;21618;-82
2021/11/28 04:59:48;;;;;;;58.87;33.75;;;;;;;1.57;100.00;96975.84;2096255;82;21593;-82
2021/11/28 05:02:49;;;;;;;58.52;32.38;;;;;;;1.58;100.00;96967.61;2096661;85;20973;-80
2021/11/28 05:05:49;;;;;;;51.98;28.65;;;;;;;1.54;100.00;96960.67;2096660;84;21120;-80
2021/11/28 05:08:50;;;;;;;50.50;29.52;;;;;;;1.54;100.00;96964.54;2096559;84;20973;-81
2021/11/28 05:11:51;;;;;;;45.23;25.90;;;;;;;1.47;100.00;96955.88;2096747;84;21020;-82
2021/11/28 05:14:53;;;;;;;55.40;32.00;;;;;;;1.41;100.00;96956.52;2096605;84;21012;-81
2021/11/28 05:17:54;;;;;;;51.70;29.07;;;;;;;1.33;100.00;96952.17;2096527;84;21024;-81
2021/11/28 05:20:55;;;;;;;62.27;34.08;;;;;;;1.35;100.00;96941.20;2096748;84;20988;-81
2021/11/28 05:23:56;;;;;;;61.35;35.20;;;;;;;1.34;100.00;96935.73;2096567;85;20969;-81
2021/11/28 05:26:57;;;;;;;58.38;34.45;;;;;;;1.40;100.00;96940.73;2096608;84;20937;-80
2021/11/28 05:29:57;;;;;;;68.52;39.05;;;;;;;1.40;100.00;96942.83;2096628;85;21008;-81
2021/11/28 05:32:58;;;;;;;65.85;40.23;;;;;;;1.38;100.00;96941.38;2096478;84;21515;-82
2021/11/28 05:35:59;;;;;;;71.97;40.48;;;;;;;1.38;100.00;96937.52;2096725;85;21087;-81
2021/11/28 05:39:00;;;;;;;70.75;40.50;;;;;;;1.44;100.00;96936.84;2096430;84;21020;-80
2021/11/28 05:42:01;;;;;;;77.80;40.20;;;;;;;1.46;100.00;96940.05;2096653;84;20973;-81
2021/11/28 05:45:02;;;;;;;70.50;36.42;;;;;;;1.48;100.00;96943.78;2096600;84;21016;-81
2021/11/28 05:48:03;;;;;;;78.83;41.90;;;;;;;1.46;100.00;96949.56;2096595;85;21032;-80
2021/11/28 05:51:04;;;;;;;82.08;41.75;;;;;;;1.41;100.00;96956.52;2097274;84;21063;-80
2021/11/28 05:54:04;;;;;;;74.85;39.13;;;;;;;1.47;100.00;96961.52;2096883;84;20929;-79
2021/11/28 05:57:05;;;;;;;79.80;42.65;;;;;;;1.51;100.00;96956.34;2096998;83;21012;-78
2021/11/28 06:00:06;;;;;;;73.02;38.73;;;;;;;1.57;100.00;96953.11;2096495;85;20941;-80
2021/11/28 06:03:07;;;;;;;73.47;40.45;;;;;;;1.58;100.00;96943.91;2096711;84;21100;-81
2021/11/28 06:06:08;;;;;;;76.90;41.73;;;;;;;1.57;100.00;96952.62;2096587;85;21040;-80
2021/11/28 06:09:08;;;;;;;80.97;41.60;;;;;;;1.54;100.00;96943.90;2096719;84;20965;-81
2021/11/28 06:12:09;;;;;;;81.02;42.80;;;;;;;1.51;100.00;96940.38;2096530;85;21075;-81
2021/11/28 06:15:10;;;;;;;74.17;41.23;;;;;;;1.51;100.00;96939.08;2096395;84;20969;-82
2021/11/28 06:18:11;;;;;;;78.40;41.33;;;;;;;1.49;100.00;96950.05;2096640;85;21044;-81
2021/11/28 06:21:12;;;;;;;64.97;34.48;;;;;;;1.36;100.00;96949.27;2096424;85;21015;-80
2021/11/28 06:24:12;;;;;;;75.12;40.00;;;;;;;1.29;100.00;96943.66;2096680;84;21512;-81
2021/11/28 06:27:13;;;;;;;70.20;38.65;;;;;;;1.14;100.00;96944.80;2096451;85;21063;-81
2021/11/28 06:30:14;;;;;;;77.70;40.85;;;;;;;1.03;100.00;96949.00;2096479;85;21106;-81
2021/11/28 06:33:15;;;;;;;78.92;43.30;;;;;;;1.01;100.00;96945.79;2096585;84;21346;-81
2021/11/28 06:36:16;;;;;;;79.90;45.48;;;;;;;1.04;100.00;96940.30;2096409;84;21088;-80
2021/11/28 06:39:16;;;;;;;74.45;40.90;;;;;;;1.03;100.00;96948.52;2096509;84;20933;-80
2021/11/28 06:42:17;;;;;;;65.90;37.53;;;;;;;1.02;100.00;96943.53;2097086;85;21007;-78
2021/11/28 06:45:18;;;;;;;68.83;37.38;;;;;;;0.96;100.00;96944.17;2098354;85;21471;-81
2021/11/28 06:48:19;;;;;;;52.33;32.67;;;;;;;0.92;100.00;96943.70;2097471;85;21039;-81
2021/11/28 06:51:20;;;;;;;66.95;37.67;;;;;;;0.87;100.00;96947.72;2096536;85;21007;-79
2021/11/28 06:54:21;;;;;;;59.45;35.65;;;;;;;0.81;100.00;96949.96;2096501;84;21033;-81
2021/11/28 06:57:21;;;;;;;65.20;35.92;;;;;;;0.78;100.00;96952.06;2096725;83;20996;-79
2021/11/28 07:00:22;;;;;;;56.35;32.53;;;;;;;0.80;100.00;96948.35;2094112;85;20960;-80
2021/11/28 07:03:23;;;;;;;65.65;38.25;;;;;;;0.80;100.00;96951.41;2136464;83;21064;-80
2021/11/28 07:06:24;;;;;;;58.38;36.50;;;;;;;0.69;100.00;96947.39;2090819;85;21010;-82
2021/11/28 07:09:26;;;;;;;60.50;34.95;;;;;;;0.70;100.00;96958.50;2091013;85;20994;-80
2021/11/28 07:12:27;;;;;;;66.10;39.60;;;;;;;0.71;100.00;96951.89;2136619;83;21079;-82
2021/11/28 07:15:28;;;;;;;81.37;41.95;;;;;;;0.81;100.00;96952.53;2136746;83;21475;-81
2021/11/28 07:18:29;;;;;;;74.97;41.63;;;;;;;0.88;100.00;96939.02;2136865;83;21040;-80
2021/11/28 07:21:30;;;;;;;77.47;42.65;;;;;;;0.97;100.00;96945.78;2136769;83;21008;-85
2021/11/28 07:24:30;;;;;;;83.07;44.77;;;;;;;1.06;100.00;96953.34;2137176;83;21021;-83
2021/11/28 07:27:31;;;;;;;75.35;42.58;;;;;;;1.09;100.00;96959.45;2136921;83;21016;-84
2021/11/28 07:30:32;;;;;;;79.87;45.88;;;;;;;1.10;100.00;96959.80;2091015;85;20984;-84
2021/11/28 07:33:36;;;;;;;71.77;40.75;;;;;;;1.17;100.00;96966.38;2136829;83;21052;-83
2021/11/28 07:36:35;;;;;;;72.30;39.70;;;;;;;1.23;100.00;96970.89;2136939;83;21051;-81
2021/11/28 07:39:38;;;;;;;64.70;37.48;;;;;;;1.33;100.00;96974.09;2137931;83;20992;-82
2021/11/28 07:42:38;;;;;;;70.52;37.35;;;;;;;1.46;100.00;96972.78;2138669;83;21515;-81
2021/11/28 07:45:39;;;;;;;66.80;37.23;;;;;;;1.55;100.00;96966.14;2137807;83;21099;-83
2021/11/28 07:48:40;;;;;;;61.63;35.80;;;;;;;1.69;100.00;96959.52;2136942;83;21026;-83
2021/11/28 07:51:41;;;;;;;62.73;35.38;;;;;;;1.78;100.00;96955.93;2136950;83;21021;-84
2021/11/28 07:54:42;;;;;;;64.92;35.90;;;;;;;1.79;100.00;96955.44;2136829;83;21061;-85
2021/11/28 07:57:44;;;;;;;58.25;31.77;;;;;;;1.85;100.00;96956.08;2090740;85;21351;-84
2021/11/28 08:00:45;;;;;;;62.30;35.38;;;;;;;1.88;100.00;96958.31;2127297;84;21049;-85
2021/11/28 08:03:45;;;;;;;75.37;39.18;;;;;;;1.89;100.00;96954.27;2127432;83;21012;-85
2021/11/28 08:06:46;;;;;;;69.40;36.50;;;;;;;1.99;100.00;96953.58;2127450;83;20974;-84
2021/11/28 08:09:47;;;;;;;68.67;38.00;;;;;;;2.09;100.00;96959.02;2127390;84;21043;-84
2021/11/28 08:12:48;;;;;;;63.23;36.40;;;;;;;2.13;100.00;96961.60;2127478;83;21060;-83
2021/11/28 08:15:48;;;;;;;60.43;35.60;;;;;;;2.23;100.00;96959.61;2127495;84;20942;-89
2021/11/28 08:18:49;;;;;;;58.25;33.95;;;;;;;2.28;100.00;96965.05;2109227;84;21072;-86
2021/11/28 08:21:50;;;;;;;53.85;31.25;;;;;;;2.21;100.00;96962.37;2127401;83;20978;-85
2021/11/28 08:24:51;;;;;;;58.25;34.70;;;;;;;2.21;100.00;96953.33;2127358;83;21055;-87
2021/11/28 08:27:52;;;;;;;63.23;34.53;;;;;;;2.29;100.00;96957.66;2127741;83;21013;-87
2021/11/28 08:30:52;;;;;;;80.17;41.83;;;;;;;2.44;100.00;96951.25;2127567;83;20977;-86
2021/11/28 08:33:53;;;;;;;83.05;46.10;;;;;;;2.48;100.00;96948.66;2127553;83;21016;-85
2021/11/28 08:36:54;;;;;;;62.25;35.25;;;;;;;2.51;100.00;96944.44;2127648;83;21037;-85
2021/11/28 08:39:55;;;;;;;61.37;34.38;;;;;;;2.49;100.00;96943.31;2127610;84;21594;-86
2021/11/28 08:42:56;;;;;;;41.02;24.75;;;;;;;2.52;100.00;96943.45;2127637;84;21587;-85
2021/11/28 08:45:57;;;;;;;53.45;28.80;;;;;;;2.41;100.00;96958.06;2129363;83;20984;-85
2021/11/28 08:48:58;;;;;;;61.70;35.55;;;;;;;2.30;100.00;96951.51;2130367;83;21085;-82
2021/11/28 08:51:59;;;;;;;49.90;29.52;;;;;;;2.36;100.00;96945.64;2129706;84;21054;-85
2021/11/28 08:55:00;;;;;;;60.90;33.42;;;;;;;2.41;100.00;96939.48;2128756;84;21539;-86
2021/11/28 08:58:01;;;;;;;55.45;30.35;;;;;;;2.45;100.00;96936.06;2128165;83;20985;-86
2021/11/28 09:01:01;;;;;;;59.03;34.40;;;;;;;2.54;100.00;96937.62;2135282;83;21000;-85
2021/11/28 09:04:02;;;;;;;60.67;33.48;;;;;;;2.64;100.00;96934.80;2136334;83;21065;-85
2021/11/28 09:07:03;;;;;;;58.05;32.80;;;;;;;2.84;100.00;96942.43;2135187;83;21032;-89
2021/11/28 09:10:04;;;;;;;84.90;44.98;;;;;;;2.92;100.00;96943.63;2134105;83;21005;-85
2021/11/28 09:13:05;;;;;;;70.85;36.90;;;;;;;3.00;100.00;96953.11;2134389;83;21483;-85
2021/11/28 09:16:10;;;;;;;59.03;33.67;;;;;;;2.96;100.00;96949.27;2133969;83;21055;-85
2021/11/28 09:19:15;;;;;;;56.55;33.00;;;;;;;3.03;100.00;96956.66;2133637;83;21108;-85
2021/11/28 09:22:12;;;;;;;68.90;37.00;;;;;;;3.05;100.00;96959.37;2132985;82;21484;-85
2021/11/28 09:25:13;;;;;;;81.72;45.75;;;;;;;3.01;100.00;96952.13;2133930;83;21350;-85
2021/11/28 09:28:13;;;;;;;63.30;35.43;;;;;;;3.07;100.00;96938.02;2134369;83;21020;-86
2021/11/28 09:31:14;;;;;;;62.73;35.85;;;;;;;3.17;100.00;96941.64;2134069;83;20992;-86
2021/11/28 09:34:18;;;;;;;80.87;47.78;;;;;;;3.24;100.00;96951.61;2107139;83;21143;-88
2021/11/28 09:37:19;;;;;;;67.67;40.43;;;;;;;3.28;100.00;96943.80;2134149;83;21500;-83
2021/11/28 09:40:20;;;;;;;67.08;34.23;;;;;;;3.46;100.00;96943.46;2134371;83;20988;-86
2021/11/28 09:43:20;;;;;;;67.92;36.77;;;;;;;3.50;100.00;96942.14;2107822;83;21017;-88
2021/11/28 09:46:21;;;;;;;75.67;38.65;;;;;;;3.49;100.00;96942.33;2134670;83;21028;-87
2021/11/28 09:49:22;;;;;;;59.67;34.53;;;;;;;3.63;100.00;96942.80;2136452;83;21087;-83
2021/11/28 09:52:24;;;;;;;61.05;34.90;;;;;;;3.71;100.00;96936.24;2138009;83;21084;-82
2021/11/28 09:55:25;;;;;;;70.50;38.25;;;;;;;3.82;100.00;96931.91;2137916;83;20977;-84
2021/11/28 09:58:26;;;;;;;59.95;33.73;;;;;;;3.77;100.00;96933.44;2136065;83;21052;-83
2021/11/28 10:01:27;;;;;;;58.95;31.80;;;;;;;3.64;100.00;96927.58;2129510;84;20988;-86
2021/11/28 10:04:27;;;;;;;56.35;33.02;;;;;;;3.58;100.00;96925.73;2129631;83;21004;-83
2021/11/28 10:07:28;;;;;;;51.85;31.57;;;;;;;3.53;100.00;96909.42;2129954;84;21477;-83
2021/11/28 10:10:29;;;;;;;47.70;29.18;;;;;;;3.56;100.00;96897.91;2129026;84;21005;-88
2021/11/28 10:13:30;;;;;;;39.45;21.65;;;;;;;3.60;100.00;96898.67;2127730;83;21068;-87
2021/11/28 10:16:31;;;;;;;57.30;31.45;;;;;;;3.54;100.00;96886.94;2127162;84;21073;-86
2021/11/28 10:19:34;;;;;;;63.58;34.92;;;;;;;3.39;100.00;96879.20;2127383;83;21515;-88
2021/11/28 10:22:34;;;;;;;59.58;34.88;;;;;;;3.30;100.00;96880.27;2128001;84;21073;-89
2021/11/28 10:25:35;;;;;;;67.70;36.30;;;;;;;3.27;100.00;96883.19;2128556;84;21129;-88
2021/11/28 10:28:36;;;;;;;63.98;35.68;;;;;;;3.32;100.00;96888.64;2127580;84;21100;-88
2021/11/28 10:31:37;;;;;;;67.15;35.23;;;;;;;3.33;100.00;96894.93;2127582;83;21005;-89
2021/11/28 10:34:38;;;;;;;78.95;40.43;;;;;;;3.38;100.00;96896.97;2127338;84;21084;-90
2021/11/28 10:37:38;;;;;;;57.48;34.95;;;;;;;3.45;100.00;96894.48;2127463;83;20977;-89
2021/11/28 10:40:41;;;;;;;74.03;38.28;;;;;;;3.58;100.00;96882.53;2127404;84;21021;-89
2021/11/28 10:43:42;;;;;;;56.28;32.20;;;;;;;3.64;100.00;96877.11;2127404;84;21100;-89
2021/11/28 10:46:42;;;;;;;51.45;30.82;;;;;;;3.70;100.00;96877.69;2127437;83;21508;-89
2021/11/28 10:49:43;;;;;;;73.02;39.08;;;;;;;3.74;100.00;96869.86;2127844;83;20998;-88
2021/11/28 10:52:44;;;;;;;67.67;37.10;;;;;;;3.75;100.00;96863.73;2129141;84;21048;-88
2021/11/28 10:55:45;;;;;;;70.03;37.45;;;;;;;3.81;100.00;96853.13;2128378;84;20988;-85
2021/11/28 10:58:46;;;;;;;62.50;33.80;;;;;;;3.79;100.00;96852.51;2124164;82;21180;-87
2021/11/28 11:01:47;;;;;;;61.13;34.33;;;;;;;3.77;100.00;96841.05;2097344;84;21047;-89
2021/11/28 11:04:48;;;;;;;47.67;28.85;;;;;;;3.79;100.00;96845.54;2096540;84;21087;-86
2021/11/28 11:07:50;;;;;;;53.52;31.35;;;;;;;3.80;100.00;96835.98;2097235;84;21064;-89
2021/11/28 11:10:51;;;;;;;42.58;26.15;;;;;;;3.88;100.00;96828.11;2098091;85;21083;-88
2021/11/28 11:13:52;;;;;;;51.55;30.30;;;;;;;3.91;100.00;96832.42;2097295;84;20992;-88
2021/11/28 11:16:53;;;;;;;58.63;34.55;;;;;;;3.94;100.00;96824.80;2097085;85;21036;-87
2021/11/28 11:19:54;;;;;;;41.37;27.17;;;;;;;4.03;100.00;96822.41;2096970;85;21080;-88
2021/11/28 11:22:55;;;;;;;50.65;28.80;;;;;;;4.10;100.00;96815.98;2097292;84;21039;-90
2021/11/28 11:25:56;;;;;;;48.00;28.98;;;;;;;4.13;100.00;96807.36;2097093;85;20945;-85
2021/11/28 11:28:57;;;;;;;56.15;31.73;;;;;;;4.14;100.00;96810.25;2096832;85;21012;-87
2021/11/28 11:31:58;;;;;;;59.65;34.03;;;;;;;4.14;100.00;96806.38;2096444;84;21573;-87
2021/11/28 11:35:01;;;;;;;56.08;32.28;;;;;;;4.14;100.00;96796.01;2096955;85;21024;-90
2021/11/28 11:38:01;;;;;;;59.90;35.25;;;;;;;4.17;100.00;96802.10;2096445;85;21028;-89
2021/11/28 11:41:04;;;;;;;68.33;36.98;;;;;;;4.17;100.00;96790.45;2096695;85;21060;-90
2021/11/28 11:44:04;;;;;;;49.55;30.15;;;;;;;4.16;100.00;96784.96;2097131;85;21033;-91
2021/11/28 11:47:05;;;;;;;64.35;35.68;;;;;;;4.19;100.00;96783.78;2096888;85;21028;-89
2021/11/28 11:50:10;;;;;;;63.52;33.23;;;;;;;4.19;100.00;96774.22;2096707;85;21115;-90
2021/11/28 11:53:21;;;;;;;55.45;31.80;;;;;;;4.14;100.00;96753.27;2096920;85;21131;-89
2021/11/28 11:56:22;;;;;;;60.88;32.93;;;;;;;4.13;100.00;96754.75;2096912;85;21035;-88
2021/11/28 11:59:27;;;;;;;60.20;34.13;;;;;;;4.07;100.00;96754.20;2081070;83;21087;-86
2021/11/28 12:02:30;;;;;;;59.95;32.42;;;;;;;4.14;100.00;96764.92;2142294;83;21017;-86
2021/11/28 12:05:31;;;;;;;53.83;29.07;;;;;;;4.09;100.00;96761.28;2142091;83;20981;-85
2021/11/28 12:08:32;;;;;;;57.80;31.45;;;;;;;4.04;100.00;96763.64;2141149;83;21586;-90
2021/11/28 12:11:33;;;;;;;56.05;30.10;;;;;;;3.84;100.00;96765.55;2140178;83;21051;-90
2021/11/28 12:14:33;;;;;;;56.13;30.50;;;;;;;3.74;100.00;96756.45;2140054;83;21068;-89
2021/11/28 12:17:34;;;;;;;53.28;29.45;;;;;;;3.69;100.00;96760.41;2140348;83;20958;-86
2021/11/28 12:20:35;;;;;;;54.50;28.40;;;;;;;3.59;100.00;96745.67;2140044;83;20972;-90
2021/11/28 12:23:36;;;;;;;60.50;32.70;;;;;;;3.52;100.00;96741.41;2140034;83;21036;-89
2021/11/28 12:26:37;;;;;;;55.50;34.58;;;;;;;3.46;100.00;96737.75;2140180;83;21480;-85
2021/11/28 12:29:39;;;;;;;57.50;33.15;;;;;;;3.44;100.00;96721.61;2139859;83;21092;-86
2021/11/28 12:32:39;;;;;;;50.25;26.75;;;;;;;3.47;100.00;96721.23;2139676;83;21036;-86
2021/11/28 12:35:40;;;;;;;53.08;32.30;;;;;;;3.56;100.00;96713.67;2139677;83;21013;-89
2021/11/28 12:38:41;;;;;;;58.75;33.05;;;;;;;3.57;100.00;96701.56;2139681;83;21495;-90
2021/11/28 12:41:44;;;;;;;55.33;31.82;;;;;;;3.61;100.00;96693.23;2140028;83;20988;-87
2021/11/28 12:44:44;;;;;;;51.83;30.15;;;;;;;3.63;100.00;96688.66;2140062;83;20985;-88
2021/11/28 12:47:45;;;;;;;55.98;33.25;;;;;;;3.65;100.00;96684.09;2140122;83;21080;-90
2021/11/28 12:50:46;;;;;;;58.45;34.08;;;;;;;3.69;100.00;96689.72;2140092;83;20978;-87
2021/11/28 12:53:47;;;;;;;51.55;28.38;;;;;;;3.74;100.00;96689.16;2140149;83;21666;-88
2021/11/28 12:56:48;;;;;;;60.38;35.08;;;;;;;3.79;100.00;96689.41;2142655;83;21012;-88
2021/11/28 12:59:48;;;;;;;60.28;35.08;;;;;;;3.77;100.00;96684.92;2139005;83;21021;-88
2021/11/28 13:02:49;;;;;;;57.10;33.38;;;;;;;3.81;100.00;96681.76;2129265;84;21500;-88
2021/11/28 13:05:50;;;;;;;60.45;35.17;;;;;;;3.82;100.00;96682.56;2128191;83;20985;-88
2021/11/28 13:08:51;;;;;;;61.13;35.55;;;;;;;3.84;100.00;96677.52;2128360;83;20954;-88
2021/11/28 13:11:52;;;;;;;73.00;41.33;;;;;;;3.88;100.00;96672.77;2128015;84;21059;-88
2021/11/28 13:14:52;;;;;;;70.75;41.98;;;;;;;3.94;100.00;96668.94;2128015;83;21049;-87
2021/11/28 13:17:53;;;;;;;64.77;37.55;;;;;;;4.05;100.00;96681.87;2128027;83;21555;-88
2021/11/28 13:20:54;;;;;;;62.13;36.93;;;;;;;4.14;100.00;96679.45;2127234;83;21547;-88
2021/11/28 13:23:55;;;;;;;71.70;38.45;;;;;;;4.24;100.00;96674.73;2127163;84;20998;-88
2021/11/28 13:26:56;;;;;;;70.97;41.45;;;;;;;4.37;100.00;96674.01;2127191;83;20985;-89
2021/11/28 13:30:03;;;;;;;65.40;38.30;;;;;;;4.41;100.00;96670.06;2127413;83;21472;-89
2021/11/28 13:33:02;;;;;;;76.80;41.02;;;;;;;4.49;100.00;96667.33;2126735;84;21188;-89
2021/11/28 13:36:03;;;;;;;64.42;38.67;;;;;;;4.48;100.00;96654.06;2128984;83;21060;-88
2021/11/28 13:39:04;;;;;;;62.40;38.45;;;;;;;4.53;100.00;96640.52;2127363;83;21060;-90
2021/11/28 13:42:05;;;;;;;66.82;40.08;;;;;;;4.60;100.00;96628.90;2127501;84;21096;-87
2021/11/28 13:45:06;;;;;;;72.10;39.83;;;;;;;4.54;100.00;96639.53;2127315;83;20946;-88
2021/11/28 13:48:07;;;;;;;65.55;37.80;;;;;;;4.60;100.00;96637.97;2127271;84;21068;-89
2021/11/28 13:51:08;;;;;;;62.78;39.13;;;;;;;4.61;100.00;96627.91;2127339;83;21060;-89
2021/11/28 13:54:09;;;;;;;66.95;37.67;;;;;;;4.58;100.00;96616.63;2127387;83;20977;-90
2021/11/28 13:57:10;;;;;;;66.17;39.92;;;;;;;4.60;100.00;96621.92;2127522;83;20997;-87